VIA022 SVMI-SVVA
Flight info
| Callsign | VIA022 |
|---|---|
| Flight time | 0h 28m |
| Altitude | 14000 |
| Route | MARES1 MARES A315 ATONO G427 PBL W15 VAL |
| Aircraft | A20N/M-SDE2E3FGHIRWXY/LB1 |
Departure
| Time | 2026-04-27 22:01 |
|---|---|
| Airport | Maiquetía Simón Bolívar International Airport (SVMI) |
Arrival
| Time | 2026-04-27 22:29 |
|---|---|
| Airport | Arturo Michelena International Airport (SVVA) |
| Time | Latitude | Longitude | Altitude | Speed | Heading |
|---|---|---|---|---|---|
| 2026-04-27 21:30 | 10.59837 | -66.99934 | 308 ft | 0 kts | 177° |
| 2026-04-27 21:52 | 10.59847 | -66.99934 | 307 ft | 2 kts | 177° |
| 2026-04-27 21:52 | 10.59858 | -66.99934 | 307 ft | 0 kts | 177° |
| 2026-04-27 21:52 | 10.59871 | -66.99936 | 306 ft | 2 kts | 162° |
| 2026-04-27 21:53 | 10.59885 | -66.99942 | 306 ft | 2 kts | 146° |
| 2026-04-27 21:53 | 10.59897 | -66.99952 | 306 ft | 2 kts | 129° |
| 2026-04-27 21:53 | 10.59905 | -66.99965 | 306 ft | 2 kts | 113° |
| 2026-04-27 21:53 | 10.59909 | -66.99979 | 306 ft | 2 kts | 97° |
| 2026-04-27 21:54 | 10.59909 | -66.99988 | 306 ft | 1 kts | 87° |
| 2026-04-27 21:54 | 10.59909 | -66.99993 | 307 ft | 0 kts | 86° |
| 2026-04-27 21:56 | 10.59910 | -66.99976 | 306 ft | 4 kts | 86° |
| 2026-04-27 21:57 | 10.59924 | -66.99932 | 305 ft | 8 kts | 40° |
| 2026-04-27 21:57 | 10.59995 | -66.99921 | 303 ft | 12 kts | 358° |
| 2026-04-27 21:57 | 10.60089 | -66.99921 | 300 ft | 14 kts | 6° |
| 2026-04-27 21:57 | 10.60133 | -66.99834 | 297 ft | 13 kts | 86° |
| 2026-04-27 21:58 | 10.60135 | -66.99788 | 295 ft | 0 kts | 87° |
| 2026-04-27 21:58 | 10.60135 | -66.99777 | 294 ft | 4 kts | 86° |
| 2026-04-27 21:58 | 10.60137 | -66.99721 | 292 ft | 10 kts | 96° |
| 2026-04-27 21:58 | 10.60084 | -66.99672 | 292 ft | 11 kts | 175° |
| 2026-04-27 21:59 | 10.60009 | -66.99667 | 295 ft | 9 kts | 178° |
| 2026-04-27 21:59 | 10.59985 | -66.99666 | 296 ft | 0 kts | 176° |
| 2026-04-27 21:59 | 10.59984 | -66.99666 | 296 ft | 0 kts | 176° |
| 2026-04-27 22:00 | 10.59965 | -66.99664 | 297 ft | 6 kts | 176° |
| 2026-04-27 22:00 | 10.59912 | -66.99638 | 297 ft | 10 kts | 105° |
| 2026-04-27 22:00 | 10.59921 | -66.99564 | 294 ft | 9 kts | 75° |
| 2026-04-27 22:00 | 10.59962 | -66.99395 | 285 ft | 60 kts | 76° |
| 2026-04-27 22:01 | 10.60135 | -66.98691 | 244 ft | 142 kts | 76° |
| 2026-04-27 22:01 | 10.60397 | -66.97535 | 456 ft | 181 kts | 77° |
| 2026-04-27 22:01 | 10.60727 | -66.96245 | 994 ft | 199 kts | 69° |
| 2026-04-27 22:01 | 10.61664 | -66.95116 | 1301 ft | 227 kts | 28° |
| 2026-04-27 22:02 | 10.63262 | -66.94835 | 1684 ft | 246 kts | 352° |
| 2026-04-27 22:02 | 10.64795 | -66.95638 | 2059 ft | 258 kts | 314° |
| 2026-04-27 22:02 | 10.65635 | -66.97250 | 2448 ft | 264 kts | 286° |
| 2026-04-27 22:02 | 10.66070 | -66.99099 | 2836 ft | 268 kts | 282° |
| 2026-04-27 22:03 | 10.66441 | -67.00955 | 3217 ft | 269 kts | 281° |
| 2026-04-27 22:03 | 10.66805 | -67.02825 | 3597 ft | 271 kts | 281° |
| 2026-04-27 22:03 | 10.67169 | -67.04690 | 3972 ft | 273 kts | 281° |
| 2026-04-27 22:03 | 10.67544 | -67.06588 | 4350 ft | 275 kts | 282° |
| 2026-04-27 22:04 | 10.68177 | -67.08411 | 4714 ft | 277 kts | 302° |
| 2026-04-27 22:04 | 10.69365 | -67.09981 | 5105 ft | 279 kts | 313° |
| 2026-04-27 22:04 | 10.70665 | -67.11430 | 5479 ft | 281 kts | 314° |
| 2026-04-27 22:04 | 10.71984 | -67.12911 | 5857 ft | 283 kts | 313° |
| 2026-04-27 22:05 | 10.73281 | -67.14424 | 6234 ft | 285 kts | 311° |
| 2026-04-27 22:05 | 10.74575 | -67.15981 | 6619 ft | 288 kts | 311° |
| 2026-04-27 22:05 | 10.75857 | -67.17548 | 7004 ft | 290 kts | 310° |
| 2026-04-27 22:05 | 10.77145 | -67.19134 | 7390 ft | 292 kts | 310° |
| 2026-04-27 22:06 | 10.78448 | -67.20744 | 7784 ft | 295 kts | 310° |
| 2026-04-27 22:06 | 10.79709 | -67.22371 | 8163 ft | 297 kts | 307° |
| 2026-04-27 22:06 | 10.80973 | -67.24069 | 8549 ft | 299 kts | 307° |
| 2026-04-27 22:06 | 10.82229 | -67.25768 | 8934 ft | 301 kts | 307° |
| 2026-04-27 22:07 | 10.83494 | -67.27478 | 9325 ft | 304 kts | 307° |
| 2026-04-27 22:07 | 10.84766 | -67.29192 | 9711 ft | 306 kts | 307° |
| 2026-04-27 22:07 | 10.86044 | -67.30911 | 10078 ft | 306 kts | 307° |
| 2026-04-27 22:07 | 10.87323 | -67.32634 | 10462 ft | 305 kts | 306° |
| 2026-04-27 22:08 | 10.88609 | -67.34364 | 10862 ft | 306 kts | 306° |
| 2026-04-27 22:08 | 10.89913 | -67.36117 | 11244 ft | 320 kts | 306° |
| 2026-04-27 22:08 | 10.91283 | -67.37958 | 11846 ft | 331 kts | 306° |
| 2026-04-27 22:08 | 10.92675 | -67.39827 | 12684 ft | 333 kts | 306° |
| 2026-04-27 22:09 | 10.94075 | -67.41710 | 13349 ft | 334 kts | 306° |
| 2026-04-27 22:09 | 10.95453 | -67.43568 | 13771 ft | 334 kts | 306° |
| 2026-04-27 22:09 | 10.96761 | -67.45522 | 13940 ft | 332 kts | 294° |
| 2026-04-27 22:09 | 10.97335 | -67.47758 | 13967 ft | 327 kts | 270° |
| 2026-04-27 22:10 | 10.97034 | -67.50034 | 13968 ft | 322 kts | 249° |
| 2026-04-27 22:10 | 10.96406 | -67.51387 | 13958 ft | 320 kts | 235° |
| 2026-04-27 22:10 | 10.94510 | -67.53706 | 13964 ft | 320 kts | 226° |
| 2026-04-27 22:10 | 10.93026 | -67.55393 | 13952 ft | 320 kts | 227° |
| 2026-04-27 22:11 | 10.91532 | -67.57108 | 13955 ft | 320 kts | 227° |
| 2026-04-27 22:11 | 10.90065 | -67.58812 | 13957 ft | 320 kts | 227° |
| 2026-04-27 22:11 | 10.88612 | -67.60509 | 13959 ft | 320 kts | 227° |
| 2026-04-27 22:11 | 10.87151 | -67.62223 | 13944 ft | 320 kts | 227° |
| 2026-04-27 22:12 | 10.85687 | -67.63946 | 13944 ft | 320 kts | 227° |
| 2026-04-27 22:12 | 10.84232 | -67.65659 | 13955 ft | 321 kts | 227° |
| 2026-04-27 22:12 | 10.82781 | -67.67382 | 13963 ft | 321 kts | 227° |
| 2026-04-27 22:12 | 10.81317 | -67.69114 | 13957 ft | 321 kts | 227° |
| 2026-04-27 22:13 | 10.79856 | -67.70836 | 13958 ft | 321 kts | 227° |
| 2026-04-27 22:13 | 10.78399 | -67.72549 | 13954 ft | 321 kts | 227° |
| 2026-04-27 22:13 | 10.76945 | -67.74258 | 13958 ft | 321 kts | 227° |
| 2026-04-27 22:13 | 10.75482 | -67.75970 | 13942 ft | 321 kts | 227° |
| 2026-04-27 22:14 | 10.74022 | -67.77676 | 13959 ft | 321 kts | 227° |
| 2026-04-27 22:14 | 10.72546 | -67.79402 | 13967 ft | 322 kts | 227° |
| 2026-04-27 22:14 | 10.71078 | -67.81129 | 13965 ft | 322 kts | 227° |
| 2026-04-27 22:14 | 10.69617 | -67.82849 | 13961 ft | 322 kts | 227° |
| 2026-04-27 22:15 | 10.68159 | -67.84564 | 13965 ft | 321 kts | 227° |
| 2026-04-27 22:15 | 10.66680 | -67.86300 | 13968 ft | 322 kts | 227° |
| 2026-04-27 22:15 | 10.65232 | -67.88001 | 13963 ft | 321 kts | 227° |
| 2026-04-27 22:15 | 10.63762 | -67.89728 | 13960 ft | 321 kts | 227° |
| 2026-04-27 22:16 | 10.62311 | -67.91432 | 13951 ft | 321 kts | 227° |
| 2026-04-27 22:16 | 10.60840 | -67.93160 | 13963 ft | 321 kts | 227° |
| 2026-04-27 22:16 | 10.59374 | -67.94881 | 13981 ft | 321 kts | 227° |
| 2026-04-27 22:16 | 10.57921 | -67.96586 | 13977 ft | 321 kts | 227° |
| 2026-04-27 22:17 | 10.56462 | -67.98302 | 13963 ft | 321 kts | 227° |
| 2026-04-27 22:17 | 10.54982 | -68.00040 | 13960 ft | 322 kts | 227° |
| 2026-04-27 22:17 | 10.53528 | -68.01745 | 13972 ft | 322 kts | 227° |
| 2026-04-27 22:17 | 10.52058 | -68.03468 | 13916 ft | 323 kts | 227° |
| 2026-04-27 22:18 | 10.50583 | -68.05183 | 13677 ft | 321 kts | 225° |
| 2026-04-27 22:18 | 10.48780 | -68.06490 | 13414 ft | 314 kts | 198° |
| 2026-04-27 22:18 | 10.46659 | -68.06762 | 13125 ft | 310 kts | 172° |
| 2026-04-27 22:18 | 10.44626 | -68.06109 | 12782 ft | 302 kts | 154° |
| 2026-04-27 22:19 | 10.42763 | -68.05205 | 12431 ft | 290 kts | 154° |
| 2026-04-27 22:19 | 10.40957 | -68.04346 | 12086 ft | 278 kts | 154° |
| 2026-04-27 22:19 | 10.39237 | -68.03540 | 11739 ft | 268 kts | 154° |
| 2026-04-27 22:19 | 10.37538 | -68.02748 | 11366 ft | 267 kts | 154° |
| 2026-04-27 22:20 | 10.35873 | -68.01977 | 10896 ft | 261 kts | 154° |
| 2026-04-27 22:20 | 10.34237 | -68.01221 | 10425 ft | 256 kts | 153° |
| 2026-04-27 22:20 | 10.32614 | -68.00472 | 9955 ft | 254 kts | 153° |
| 2026-04-27 22:20 | 10.31009 | -67.99731 | 9480 ft | 251 kts | 153° |
| 2026-04-27 22:21 | 10.29440 | -67.99007 | 9022 ft | 249 kts | 153° |
| 2026-04-27 22:21 | 10.27858 | -67.98279 | 8554 ft | 248 kts | 153° |
| 2026-04-27 22:21 | 10.26291 | -67.97556 | 8086 ft | 246 kts | 152° |
| 2026-04-27 22:21 | 10.24728 | -67.96836 | 7615 ft | 245 kts | 152° |
| 2026-04-27 22:22 | 10.23188 | -67.96127 | 7143 ft | 243 kts | 152° |
| 2026-04-27 22:22 | 10.21650 | -67.95418 | 6667 ft | 242 kts | 152° |
| 2026-04-27 22:22 | 10.20132 | -67.94718 | 6192 ft | 240 kts | 152° |
| 2026-04-27 22:22 | 10.18616 | -67.94020 | 5714 ft | 239 kts | 153° |
| 2026-04-27 22:23 | 10.17022 | -67.93552 | 5221 ft | 243 kts | 175° |
| 2026-04-27 22:23 | 10.15344 | -67.93858 | 4736 ft | 248 kts | 202° |
| 2026-04-27 22:23 | 10.13963 | -67.94871 | 4254 ft | 250 kts | 228° |
| 2026-04-27 22:23 | 10.13109 | -67.96405 | 3814 ft | 247 kts | 248° |
| 2026-04-27 22:24 | 10.12539 | -67.97990 | 3618 ft | 229 kts | 249° |
| 2026-04-27 22:24 | 10.12030 | -67.99444 | 3605 ft | 211 kts | 249° |
| 2026-04-27 22:24 | 10.11529 | -68.00835 | 3679 ft | 208 kts | 248° |
| 2026-04-27 22:24 | 10.11021 | -68.02210 | 3670 ft | 208 kts | 248° |
| 2026-04-27 22:25 | 10.10542 | -68.03533 | 3618 ft | 191 kts | 252° |
| 2026-04-27 22:25 | 10.10554 | -68.04828 | 3576 ft | 178 kts | 290° |
| 2026-04-27 22:25 | 10.11242 | -68.05799 | 3587 ft | 168 kts | 325° |
| 2026-04-27 22:25 | 10.12276 | -68.06242 | 3590 ft | 155 kts | 357° |
| 2026-04-27 22:26 | 10.13324 | -68.06119 | 3615 ft | 148 kts | 26° |
| 2026-04-27 22:26 | 10.14159 | -68.05533 | 3629 ft | 144 kts | 52° |
| 2026-04-27 22:26 | 10.14700 | -68.04688 | 3667 ft | 143 kts | 62° |
| 2026-04-27 22:26 | 10.15147 | -68.03777 | 3635 ft | 142 kts | 75° |
| 2026-04-27 22:27 | 10.15294 | -68.02786 | 3621 ft | 143 kts | 85° |
| 2026-04-27 22:27 | 10.15351 | -68.01782 | 3402 ft | 142 kts | 89° |
| 2026-04-27 22:27 | 10.15323 | -68.00791 | 3158 ft | 141 kts | 92° |
| 2026-04-27 22:27 | 10.15287 | -67.99786 | 2911 ft | 141 kts | 93° |
| 2026-04-27 22:28 | 10.15268 | -67.98787 | 2634 ft | 141 kts | 92° |
| 2026-04-27 22:28 | 10.15212 | -67.97800 | 2349 ft | 141 kts | 94° |
| 2026-04-27 22:28 | 10.15157 | -67.96820 | 2077 ft | 141 kts | 94° |
| 2026-04-27 22:28 | 10.15099 | -67.95830 | 1785 ft | 138 kts | 92° |
| 2026-04-27 22:29 | 10.15060 | -67.94878 | 1609 ft | 132 kts | 89° |
| 2026-04-27 22:29 | 10.15033 | -67.93954 | 1476 ft | 130 kts | 91° |
| 2026-04-27 22:29 | 10.14997 | -67.93129 | 1451 ft | 97 kts | 92° |
| 2026-04-27 22:29 | 10.14972 | -67.92623 | 1448 ft | 47 kts | 94° |
| 2026-04-27 22:30 | 10.14954 | -67.92327 | 1448 ft | 16 kts | 85° |
| 2026-04-27 22:30 | 10.15033 | -67.92268 | 1447 ft | 15 kts | 5° |
| 2026-04-27 22:30 | 10.15058 | -67.92267 | 1447 ft | 0 kts | 0° |